createdAt,value
2022-11-28T00:00:37.975Z,79.36
2022-11-28T00:01:38.009Z,78.85
2022-11-28T00:02:38.256Z,79.19
2022-11-28T00:03:38.143Z,79.19
2022-11-28T00:04:38.047Z,79.57
2022-11-28T00:05:40.822Z,79.05
2022-11-28T00:06:39.095Z,79.05
2022-11-28T00:07:38.062Z,78.67
2022-11-28T00:08:37.937Z,79.60
2022-11-28T00:09:37.901Z,79.50
2022-11-28T00:10:37.942Z,79.67
2022-11-28T00:11:37.952Z,79.71
2022-11-28T00:12:38.487Z,79.09
2022-11-28T00:13:38.053Z,79.09
2022-11-28T00:14:37.906Z,78.67
2022-11-28T00:15:37.906Z,78.47
2022-11-28T00:16:37.851Z,79.40
2022-11-28T00:17:37.850Z,79.71
2022-11-28T00:18:37.843Z,79.30
2022-11-28T00:19:37.874Z,79.05
2022-11-28T00:20:37.920Z,79.71
2022-11-28T00:21:37.842Z,80.22
2022-11-28T00:22:37.845Z,80.12
2022-11-28T00:23:37.847Z,78.67
2022-11-28T00:24:38.543Z,79.30
2022-11-28T00:25:37.807Z,79.19
2022-11-28T00:26:37.792Z,79.60
2022-11-28T00:27:37.807Z,79.30
2022-11-28T00:28:37.772Z,80.22
2022-11-28T00:29:37.769Z,79.71
2022-11-28T00:30:38.296Z,79.54
2022-11-28T00:31:37.805Z,79.40
2022-11-28T00:32:37.761Z,79.19
2022-11-28T00:33:38.685Z,79.09
2022-11-28T00:34:37.748Z,78.47
2022-11-28T00:35:37.733Z,80.12
2022-11-28T00:36:37.835Z,79.09
2022-11-28T00:37:38.222Z,78.88
2022-11-28T00:38:37.724Z,80.02
2022-11-28T00:39:37.741Z,79.40
2022-11-28T00:40:37.674Z,78.78
2022-11-28T00:41:37.728Z,79.30
2022-11-28T00:42:37.740Z,78.78
2022-11-28T00:43:38.135Z,78.78
2022-11-28T00:44:37.665Z,78.67
2022-11-28T00:45:37.753Z,78.78
2022-11-28T00:46:37.637Z,78.53
2022-11-28T00:47:37.671Z,78.64
2022-11-28T00:48:37.631Z,78.85
2022-11-28T00:49:37.662Z,78.74
2022-11-28T00:50:37.647Z,78.95
2022-11-28T00:51:37.626Z,79.16
2022-11-28T00:52:37.761Z,78.12
2022-11-28T00:53:37.607Z,78.02
2022-11-28T00:54:37.606Z,78.43
2022-11-28T00:55:37.603Z,77.95
2022-11-28T00:56:37.583Z,78.43
2022-11-28T00:57:37.697Z,78.22
2022-11-28T00:58:37.586Z,78.85
2022-11-28T00:59:37.578Z,77.53
2022-11-28T01:00:37.565Z,77.53
2022-11-28T01:01:37.650Z,78.85
2022-11-28T01:02:37.586Z,78.85
2022-11-28T01:03:37.585Z,78.85
2022-11-28T01:04:37.529Z,78.12
2022-11-28T01:05:38.420Z,78.53
2022-11-28T01:06:38.099Z,78.12
2022-11-28T01:07:38.093Z,78.39
2022-11-28T01:08:37.621Z,78.02
2022-11-28T01:09:37.566Z,78.85
2022-11-28T01:10:37.509Z,78.64
2022-11-28T01:11:37.630Z,78.39
2022-11-28T01:12:37.533Z,78.12
2022-11-28T01:13:37.480Z,78.50
2022-11-28T01:14:37.483Z,77.77
2022-11-28T01:15:37.463Z,77.60
2022-11-28T01:16:37.528Z,77.50
2022-11-28T01:17:37.442Z,77.70
2022-11-28T01:18:38.484Z,77.39
2022-11-28T01:19:37.475Z,77.74
2022-11-28T01:20:37.420Z,78.33
2022-11-28T01:21:37.436Z,78.64
2022-11-28T01:22:37.416Z,78.57
2022-11-28T01:23:37.402Z,78.64
2022-11-28T01:24:37.522Z,78.33
2022-11-28T01:25:37.382Z,78.43
2022-11-28T01:26:37.368Z,77.91
2022-11-28T01:27:37.392Z,77.60
2022-11-28T01:28:37.369Z,77.60
2022-11-28T01:29:37.953Z,77.60
2022-11-28T01:30:37.351Z,77.81
2022-11-28T01:31:37.447Z,78.02
2022-11-28T01:32:37.343Z,77.87
2022-11-28T01:33:37.349Z,77.60
2022-11-28T01:34:39.866Z,77.39
2022-11-28T01:35:37.321Z,77.91
2022-11-28T01:36:37.339Z,77.91
2022-11-28T01:37:37.459Z,77.60
2022-11-28T01:38:37.302Z,77.60
2022-11-28T01:39:38.731Z,77.81
2022-11-28T01:40:37.403Z,77.60
2022-11-28T01:41:37.297Z,78.53
2022-11-28T01:42:37.276Z,77.64
2022-11-28T01:43:37.272Z,78.53
2022-11-28T01:44:37.336Z,78.47
2022-11-28T01:45:37.280Z,78.36
2022-11-28T01:46:37.351Z,78.26
2022-11-28T01:47:37.258Z,78.64
2022-11-28T01:48:37.225Z,78.47
2022-11-28T01:49:37.250Z,77.70
2022-11-28T01:50:37.223Z,78.33
2022-11-28T01:51:37.213Z,78.74
2022-11-28T01:52:37.292Z,78.53
2022-11-28T01:53:37.206Z,78.64
2022-11-28T01:54:37.186Z,78.33
2022-11-28T01:55:37.244Z,78.43
2022-11-28T01:56:37.299Z,78.12
2022-11-28T01:57:37.191Z,78.33
2022-11-28T01:58:37.180Z,78.53
2022-11-28T01:59:37.168Z,78.36
2022-11-28T02:00:37.196Z,78.05
2022-11-28T02:01:37.166Z,78.05
2022-11-28T02:02:37.244Z,78.33
2022-11-28T02:03:37.139Z,78.47
2022-11-28T02:04:37.164Z,78.67
2022-11-28T02:05:37.154Z,78.85
2022-11-28T02:06:38.399Z,78.85
2022-11-28T02:07:37.219Z,78.67
2022-11-28T02:08:37.146Z,78.57
2022-11-28T02:09:37.158Z,78.47
2022-11-28T02:10:37.094Z,78.88
2022-11-28T02:11:37.083Z,78.67
2022-11-28T02:12:37.242Z,79.60
2022-11-28T02:13:37.101Z,78.78
2022-11-28T02:14:37.051Z,78.88
2022-11-28T02:15:37.081Z,78.78
2022-11-28T02:16:37.227Z,78.78
2022-11-28T02:17:37.051Z,78.71
2022-11-28T02:18:37.043Z,78.67
2022-11-28T02:19:37.068Z,78.47
2022-11-28T02:20:37.018Z,78.88
2022-11-28T02:21:37.028Z,79.19
2022-11-28T02:22:37.178Z,79.30
2022-11-28T02:23:37.028Z,79.71
2022-11-28T02:24:39.820Z,78.47
2022-11-28T02:25:38.034Z,79.19
2022-11-28T02:26:36.981Z,79.60
2022-11-28T02:27:36.986Z,79.81
2022-11-28T02:28:37.079Z,79.19
2022-11-28T02:29:37.221Z,78.88
2022-11-28T02:30:38.057Z,79.71
2022-11-28T02:31:37.314Z,78.99
2022-11-28T02:32:37.407Z,79.91
2022-11-28T02:33:36.952Z,79.30
2022-11-28T02:34:36.938Z,78.78
2022-11-28T02:35:36.925Z,79.13
2022-11-28T02:36:36.925Z,79.09
2022-11-28T02:37:36.898Z,79.91
2022-11-28T02:38:36.913Z,79.09
2022-11-28T02:39:36.906Z,78.88
2022-11-28T02:40:36.905Z,78.78
2022-11-28T02:41:36.895Z,80.12
2022-11-28T02:42:36.878Z,80.05
2022-11-28T02:43:36.882Z,79.09
2022-11-28T02:44:37.003Z,78.67
2022-11-28T02:45:36.919Z,78.99
2022-11-28T02:46:36.922Z,78.36
2022-11-28T02:47:36.896Z,79.60
2022-11-28T02:48:36.836Z,79.91
2022-11-28T02:49:36.868Z,78.36
2022-11-28T02:50:36.916Z,78.67
2022-11-28T02:51:36.817Z,80.22
2022-11-28T02:52:36.908Z,79.09
2022-11-28T02:53:36.807Z,79.91
2022-11-28T02:54:36.785Z,80.12
2022-11-28T02:55:38.716Z,79.09
2022-11-28T02:56:36.769Z,78.78
2022-11-28T02:57:36.793Z,78.78
2022-11-28T02:58:36.779Z,79.91
2022-11-28T02:59:36.784Z,78.78
2022-11-28T03:00:36.956Z,78.78
2022-11-28T03:01:36.813Z,79.30
2022-11-28T03:02:36.840Z,79.30
2022-11-28T03:03:36.771Z,78.47
2022-11-28T03:04:36.729Z,79.50
2022-11-28T03:05:37.723Z,78.88
2022-11-28T03:06:37.200Z,78.95
2022-11-28T03:07:36.820Z,79.09
2022-11-28T03:08:36.709Z,78.47
2022-11-28T03:09:36.697Z,78.12
2022-11-28T03:10:36.868Z,78.33
2022-11-28T03:11:36.681Z,77.91
2022-11-28T03:12:36.668Z,78.26
2022-11-28T03:13:36.668Z,77.81
2022-11-28T03:14:36.678Z,77.74
2022-11-28T03:15:44.822Z,78.36
2022-11-28T03:16:36.711Z,77.81
2022-11-28T03:17:36.625Z,77.91
2022-11-28T03:18:36.642Z,77.39
2022-11-28T03:19:36.629Z,78.02
2022-11-28T03:20:36.615Z,77.50
2022-11-28T03:21:36.611Z,77.29
2022-11-28T03:22:36.623Z,77.29
2022-11-28T03:23:36.600Z,77.50
2022-11-28T03:24:37.784Z,76.78
2022-11-28T03:25:36.581Z,76.88
2022-11-28T03:26:36.592Z,77.60
2022-11-28T03:27:36.642Z,77.56
2022-11-28T03:28:42.063Z,76.78
2022-11-28T03:29:37.578Z,76.64
2022-11-28T03:30:36.586Z,76.84
2022-11-28T03:31:36.728Z,76.67
2022-11-28T03:32:36.563Z,77.26
2022-11-28T03:33:36.581Z,76.78
2022-11-28T03:34:36.520Z,76.95
2022-11-28T03:35:36.511Z,76.95
2022-11-28T03:36:36.522Z,76.88
2022-11-28T03:37:36.502Z,77.56
2022-11-28T03:38:36.520Z,77.36
2022-11-28T03:39:36.495Z,77.26
2022-11-28T03:40:36.480Z,77.77
2022-11-28T03:41:36.485Z,77.67
2022-11-28T03:42:36.473Z,77.67
2022-11-28T03:43:36.485Z,77.47
2022-11-28T03:44:36.466Z,77.84
2022-11-28T03:45:36.443Z,76.84
2022-11-28T03:46:36.510Z,77.47
2022-11-28T03:47:36.558Z,77.01
2022-11-28T03:48:36.447Z,76.84
2022-11-28T03:49:36.426Z,77.47
2022-11-28T03:50:36.437Z,77.56
2022-11-28T03:51:36.420Z,77.67
2022-11-28T03:52:36.401Z,77.26
2022-11-28T03:53:36.414Z,77.56
2022-11-28T03:54:37.430Z,77.01
2022-11-28T03:55:36.465Z,77.47
2022-11-28T03:56:36.380Z,77.26
2022-11-28T03:57:36.399Z,77.15
2022-11-28T03:58:36.369Z,76.78
2022-11-28T03:59:37.149Z,77.05
2022-11-28T04:00:36.363Z,77.09
2022-11-28T04:01:36.414Z,77.15
2022-11-28T04:02:36.394Z,77.36
2022-11-28T04:03:36.452Z,77.05
2022-11-28T04:04:36.387Z,77.36
2022-11-28T04:05:36.332Z,77.26
2022-11-28T04:06:36.304Z,76.64
2022-11-28T04:07:36.371Z,77.15
2022-11-28T04:08:36.304Z,76.95
2022-11-28T04:09:36.300Z,76.64
2022-11-28T04:10:36.312Z,77.05
2022-11-28T04:11:36.295Z,77.15
2022-11-28T04:12:36.297Z,76.64
2022-11-28T04:13:36.283Z,76.53
2022-11-28T04:14:36.725Z,76.12
2022-11-28T04:15:37.596Z,76.43
2022-11-28T04:16:36.357Z,76.64
2022-11-28T04:17:36.244Z,76.74
2022-11-28T04:18:36.279Z,76.84
2022-11-28T04:19:36.382Z,76.98
2022-11-28T04:20:36.224Z,76.67
2022-11-28T04:21:36.263Z,77.05
2022-11-28T04:22:36.260Z,76.74
2022-11-28T04:23:36.239Z,77.09
2022-11-28T04:24:36.215Z,77.29
2022-11-28T04:25:36.222Z,76.98
2022-11-28T04:26:36.171Z,77.19
2022-11-28T04:27:36.197Z,76.88
2022-11-28T04:28:36.186Z,76.98
2022-11-28T04:29:36.157Z,76.98
2022-11-28T04:30:36.201Z,77.50
2022-11-28T04:31:36.194Z,76.78
2022-11-28T04:32:36.134Z,77.39
2022-11-28T04:33:36.141Z,77.12
2022-11-28T04:34:36.160Z,77.22
2022-11-28T04:35:36.237Z,77.29
2022-11-28T04:36:36.268Z,76.36
2022-11-28T04:37:36.127Z,77.19
2022-11-28T04:38:36.903Z,76.78
2022-11-28T04:39:36.089Z,76.57
2022-11-28T04:40:36.107Z,76.98
2022-11-28T04:41:36.121Z,77.19
2022-11-28T04:42:36.077Z,76.67
2022-11-28T04:43:36.073Z,76.98
2022-11-28T04:44:36.058Z,76.78
2022-11-28T04:45:36.128Z,76.67
2022-11-28T04:46:36.045Z,76.43
2022-11-28T04:47:36.032Z,76.53
2022-11-28T04:48:36.721Z,76.64
2022-11-28T04:49:36.043Z,76.57
2022-11-28T04:50:36.035Z,76.74
2022-11-28T04:51:36.238Z,76.67
2022-11-28T04:52:36.005Z,76.67
2022-11-28T04:53:36.010Z,76.57
2022-11-28T04:54:35.990Z,76.64
2022-11-28T04:55:35.994Z,77.05
2022-11-28T04:56:35.987Z,76.64
2022-11-28T04:57:35.983Z,76.64
2022-11-28T04:58:35.968Z,75.91
2022-11-28T04:59:35.985Z,75.91
2022-11-28T05:00:35.979Z,75.91
2022-11-28T05:01:35.966Z,76.15
2022-11-28T05:02:36.027Z,76.57
2022-11-28T05:03:39.857Z,76.84
2022-11-28T05:04:36.945Z,76.32
2022-11-28T05:05:35.918Z,76.43
2022-11-28T05:06:35.917Z,76.53
2022-11-28T05:07:36.017Z,76.53
2022-11-28T05:08:35.893Z,76.32
2022-11-28T05:09:35.905Z,76.53
2022-11-28T05:10:35.908Z,76.22
2022-11-28T05:11:35.901Z,76.43
2022-11-28T05:12:35.865Z,76.22
2022-11-28T05:13:35.965Z,76.57
2022-11-28T05:14:35.858Z,76.67
2022-11-28T05:15:35.860Z,76.64
2022-11-28T05:16:36.623Z,76.67
2022-11-28T05:17:41.692Z,76.05
2022-11-28T05:18:36.884Z,76.57
2022-11-28T05:19:35.844Z,76.26
2022-11-28T05:20:35.813Z,76.67
2022-11-28T05:21:35.826Z,76.84
2022-11-28T05:22:35.829Z,76.78
2022-11-28T05:23:35.921Z,76.67
2022-11-28T05:24:35.876Z,76.78
2022-11-28T05:25:35.798Z,76.67
2022-11-28T05:26:35.781Z,76.53
2022-11-28T05:27:35.794Z,76.53
2022-11-28T05:28:35.769Z,76.74
2022-11-28T05:29:35.774Z,76.43
2022-11-28T05:30:35.793Z,76.15
2022-11-28T05:31:35.853Z,76.57
2022-11-28T05:32:36.181Z,76.78
2022-11-28T05:33:35.752Z,76.46
2022-11-28T05:34:35.720Z,76.78
2022-11-28T05:35:35.724Z,76.88
2022-11-28T05:36:35.725Z,77.09
2022-11-28T05:37:35.717Z,77.29
2022-11-28T05:38:35.707Z,77.09
2022-11-28T05:39:35.832Z,77.09
2022-11-28T05:40:35.678Z,76.78
2022-11-28T05:41:35.685Z,77.39
2022-11-28T05:42:35.784Z,77.09
2022-11-28T05:43:35.683Z,76.91
2022-11-28T05:44:35.663Z,76.67
2022-11-28T05:45:35.734Z,76.67
2022-11-28T05:46:35.949Z,76.46
2022-11-28T05:47:35.654Z,76.84
2022-11-28T05:48:35.650Z,76.57
2022-11-28T05:49:35.645Z,76.46
2022-11-28T05:50:39.784Z,76.46
2022-11-28T05:51:35.631Z,76.64
2022-11-28T05:52:35.605Z,76.26
2022-11-28T05:53:35.631Z,76.15
2022-11-28T05:54:35.590Z,76.36
2022-11-28T05:55:36.490Z,76.78
2022-11-28T05:56:40.942Z,76.26
2022-11-28T05:57:37.417Z,76.57
2022-11-28T05:58:35.575Z,76.67
2022-11-28T05:59:35.590Z,76.67
2022-11-28T06:00:35.563Z,76.67
2022-11-28T06:01:35.571Z,76.78
2022-11-28T06:02:35.610Z,76.78
2022-11-28T06:03:35.575Z,76.88
2022-11-28T06:04:35.627Z,76.15
2022-11-28T06:05:42.903Z,76.05
2022-11-28T06:06:37.189Z,76.57
2022-11-28T06:07:35.568Z,76.88
2022-11-28T06:08:35.506Z,76.98
2022-11-28T06:09:35.520Z,76.09
2022-11-28T06:10:35.487Z,77.09
2022-11-28T06:11:37.362Z,76.57
2022-11-28T06:12:35.480Z,77.29
2022-11-28T06:13:35.483Z,76.88
2022-11-28T06:14:35.461Z,77.22
2022-11-28T06:15:38.307Z,77.09
2022-11-28T06:16:35.519Z,77.29
2022-11-28T06:17:35.448Z,76.88
2022-11-28T06:18:35.456Z,77.12
2022-11-28T06:19:35.423Z,76.50
2022-11-28T06:20:35.436Z,77.12
2022-11-28T06:21:35.421Z,76.57
2022-11-28T06:22:36.196Z,77.29
2022-11-28T06:23:36.394Z,76.91
2022-11-28T06:24:35.416Z,77.12
2022-11-28T06:25:35.398Z,77.09
2022-11-28T06:26:35.419Z,77.19
2022-11-28T06:27:35.489Z,77.33
2022-11-28T06:28:35.369Z,77.12
2022-11-28T06:29:35.370Z,76.81
2022-11-28T06:30:35.381Z,76.67
2022-11-28T06:31:35.707Z,77.09
2022-11-28T06:32:35.361Z,76.81
2022-11-28T06:33:35.388Z,77.09
2022-11-28T06:34:35.338Z,76.98
2022-11-28T06:35:35.338Z,76.57
2022-11-28T06:36:35.356Z,77.19
2022-11-28T06:37:35.342Z,77.19
2022-11-28T06:38:35.338Z,77.01
2022-11-28T06:39:35.298Z,77.53
2022-11-28T06:40:35.353Z,77.74
2022-11-28T06:41:35.586Z,77.29
2022-11-28T06:42:35.300Z,76.98
2022-11-28T06:43:35.405Z,77.09
2022-11-28T06:44:35.289Z,77.12
2022-11-28T06:45:35.281Z,77.12
2022-11-28T06:46:35.263Z,77.60
2022-11-28T06:47:35.250Z,77.19
2022-11-28T06:48:35.247Z,77.33
2022-11-28T06:49:35.238Z,76.88
2022-11-28T06:50:35.273Z,77.29
2022-11-28T06:51:35.258Z,76.88
2022-11-28T06:52:35.232Z,77.33
2022-11-28T06:53:35.214Z,77.19
2022-11-28T06:54:35.202Z,76.67
2022-11-28T06:55:35.202Z,77.39
2022-11-28T06:56:35.205Z,76.57
2022-11-28T06:57:35.192Z,77.39
2022-11-28T06:58:35.207Z,77.09
2022-11-28T06:59:35.282Z,76.57
2022-11-28T07:00:35.191Z,77.09
2022-11-28T07:01:35.213Z,77.09
2022-11-28T07:02:35.263Z,77.01
2022-11-28T07:03:35.170Z,77.22
2022-11-28T07:04:35.137Z,76.98
2022-11-28T07:05:35.136Z,76.98
2022-11-28T07:06:35.144Z,77.09
2022-11-28T07:07:50.012Z,77.29
2022-11-28T07:08:36.154Z,77.22
2022-11-28T07:09:35.098Z,76.98
2022-11-28T07:10:35.119Z,77.29
2022-11-28T07:11:35.101Z,76.98
2022-11-28T07:12:35.091Z,76.91
2022-11-28T07:13:35.087Z,77.19
2022-11-28T07:14:35.085Z,77.09
2022-11-28T07:15:35.091Z,77.19
2022-11-28T07:16:35.146Z,76.88
2022-11-28T07:17:35.063Z,76.88
2022-11-28T07:18:35.062Z,76.67
2022-11-28T07:19:35.043Z,76.46
2022-11-28T07:20:35.074Z,76.67
2022-11-28T07:21:35.929Z,76.88
2022-11-28T07:22:35.026Z,76.36
2022-11-28T07:23:35.043Z,76.46
2022-11-28T07:24:35.011Z,76.57
2022-11-28T07:25:35.007Z,76.57
2022-11-28T07:26:35.006Z,76.57
2022-11-28T07:27:35.001Z,76.78
2022-11-28T07:28:34.994Z,76.78
2022-11-28T07:29:34.981Z,76.15
2022-11-28T07:30:34.984Z,76.26
2022-11-28T07:31:35.140Z,76.98
2022-11-28T07:32:35.628Z,76.57
2022-11-28T07:33:35.692Z,76.46
2022-11-28T07:34:34.975Z,76.26
2022-11-28T07:35:34.941Z,76.57
2022-11-28T07:36:35.044Z,76.67
2022-11-28T07:37:34.912Z,76.74
2022-11-28T07:38:35.400Z,76.67
2022-11-28T07:39:34.903Z,76.64
2022-11-28T07:40:34.990Z,76.57
2022-11-28T07:41:35.581Z,76.67
2022-11-28T07:42:34.907Z,76.57
2022-11-28T07:43:34.889Z,76.78
2022-11-28T07:44:35.082Z,76.57
2022-11-28T07:45:53.727Z,76.36
2022-11-28T07:46:35.949Z,77.19
2022-11-28T07:47:34.872Z,76.98
2022-11-28T07:48:34.850Z,76.84
2022-11-28T07:49:34.854Z,76.74
2022-11-28T07:50:34.869Z,77.15
2022-11-28T07:51:34.820Z,76.67
2022-11-28T07:52:34.835Z,76.98
2022-11-28T07:53:34.809Z,76.43
2022-11-28T07:54:34.813Z,76.32
2022-11-28T07:55:34.822Z,76.78
2022-11-28T07:57:10.301Z,76.12
2022-11-28T07:57:36.544Z,76.12
2022-11-28T07:58:34.795Z,76.22
2022-11-28T07:59:35.008Z,76.57
2022-11-28T08:00:34.783Z,76.78
2022-11-28T08:01:34.777Z,76.98
2022-11-28T08:02:34.888Z,76.32
2022-11-28T08:03:34.847Z,76.43
2022-11-28T08:04:34.857Z,76.46
2022-11-28T08:05:34.741Z,76.43
2022-11-28T08:06:34.738Z,76.46
2022-11-28T08:07:34.772Z,76.78
2022-11-28T08:08:34.712Z,76.64
2022-11-28T08:09:34.750Z,76.64
2022-11-28T08:10:34.709Z,76.53
2022-11-28T08:11:34.698Z,76.43
2022-11-28T08:12:35.406Z,76.22
2022-11-28T08:13:34.699Z,76.22
2022-11-28T08:14:35.293Z,76.22
2022-11-28T08:15:34.696Z,76.32
2022-11-28T08:16:35.123Z,76.74
2022-11-28T08:17:34.679Z,76.70
2022-11-28T08:18:34.654Z,76.12
2022-11-28T08:19:35.458Z,75.70
2022-11-28T08:20:34.631Z,76.09
2022-11-28T08:21:34.728Z,76.32
2022-11-28T08:22:35.232Z,76.12
2022-11-28T08:23:34.620Z,75.88
2022-11-28T08:24:34.627Z,75.81
2022-11-28T08:25:34.603Z,76.12
2022-11-28T08:26:34.588Z,76.12
2022-11-28T08:27:34.611Z,76.29
2022-11-28T08:28:34.572Z,76.39
2022-11-28T08:29:36.767Z,76.09
2022-11-28T08:30:34.657Z,76.18
2022-11-28T08:31:34.593Z,76.09
2022-11-28T08:32:34.559Z,76.09
2022-11-28T08:33:34.576Z,76.09
2022-11-28T08:34:34.536Z,75.78
2022-11-28T08:35:34.572Z,76.12
2022-11-28T08:36:34.540Z,76.09
2022-11-28T08:37:34.697Z,76.09
2022-11-28T08:38:34.514Z,76.18
2022-11-28T08:39:34.522Z,76.39
2022-11-28T08:40:34.494Z,76.15
2022-11-28T08:41:34.522Z,76.15
2022-11-28T08:42:34.503Z,76.05
2022-11-28T08:43:34.489Z,75.84
2022-11-28T08:44:34.496Z,74.77
2022-11-28T08:45:34.512Z,75.09
2022-11-28T08:46:35.425Z,75.39
2022-11-28T08:47:34.523Z,75.29
2022-11-28T08:48:34.446Z,75.09
2022-11-28T08:49:34.458Z,75.36
2022-11-28T08:50:34.436Z,75.46
2022-11-28T08:51:35.128Z,74.98
2022-11-28T08:52:34.425Z,74.95
2022-11-28T08:53:34.435Z,75.19
2022-11-28T08:54:34.610Z,74.95
2022-11-28T08:55:37.936Z,74.88
2022-11-28T08:56:35.501Z,74.98
2022-11-28T08:57:34.582Z,75.05
2022-11-28T08:58:34.377Z,75.26
2022-11-28T08:59:34.390Z,75.05
2022-11-28T09:00:34.511Z,75.05
2022-11-28T09:01:34.526Z,75.05
2022-11-28T09:02:34.391Z,75.36
2022-11-28T09:03:34.414Z,75.36
2022-11-28T09:04:34.354Z,75.15
2022-11-28T09:05:34.340Z,74.95
2022-11-28T09:06:34.353Z,75.36
2022-11-28T09:07:34.431Z,75.87
2022-11-28T09:08:34.344Z,76.08
2022-11-28T09:09:34.328Z,75.87
2022-11-28T09:10:34.308Z,75.87
2022-11-28T09:11:34.307Z,75.98
2022-11-28T09:12:34.310Z,75.29
2022-11-28T09:13:34.288Z,75.49
2022-11-28T09:14:34.276Z,75.91
2022-11-28T09:15:34.306Z,75.81
2022-11-28T09:16:34.384Z,76.01
2022-11-28T09:17:34.265Z,75.91
2022-11-28T09:18:34.258Z,75.70
2022-11-28T09:19:34.706Z,75.81
2022-11-28T09:20:34.250Z,75.81
2022-11-28T09:21:34.230Z,75.91
2022-11-28T09:22:34.253Z,76.12
2022-11-28T09:23:34.248Z,76.22
2022-11-28T09:24:34.253Z,76.43
2022-11-28T09:25:34.980Z,76.43
2022-11-28T09:26:34.222Z,76.43
2022-11-28T09:27:34.195Z,76.43
2022-11-28T09:28:34.201Z,76.01
2022-11-28T09:29:34.192Z,76.12
2022-11-28T09:30:34.477Z,76.43
2022-11-28T09:31:34.749Z,76.22
2022-11-28T09:32:55.201Z,76.29
2022-11-28T09:33:34.152Z,76.01
2022-11-28T09:34:34.183Z,75.87
2022-11-28T09:35:34.131Z,76.43
2022-11-28T09:36:34.157Z,76.43
2022-11-28T09:37:34.132Z,76.53
2022-11-28T09:38:34.119Z,76.70
2022-11-28T09:39:44.273Z,76.43
2022-11-28T09:40:35.163Z,76.53
2022-11-28T09:41:34.102Z,76.70
2022-11-28T09:42:34.099Z,77.01
2022-11-28T09:43:34.149Z,76.60
2022-11-28T09:44:34.080Z,76.50
2022-11-28T09:45:34.103Z,76.56
2022-11-28T09:46:34.193Z,76.15
2022-11-28T09:47:34.050Z,75.63
2022-11-28T09:48:34.067Z,75.32
2022-11-28T09:49:55.049Z,75.84
2022-11-28T09:50:34.043Z,76.35
2022-11-28T09:51:34.042Z,76.56
2022-11-28T09:52:34.126Z,76.67
2022-11-28T09:53:34.016Z,76.15
2022-11-28T09:54:34.054Z,76.15
2022-11-28T09:55:34.087Z,76.56
2022-11-28T09:56:33.998Z,75.53
2022-11-28T09:57:33.978Z,76.21
2022-11-28T09:58:34.029Z,76.21
2022-11-28T09:59:33.983Z,76.42
2022-11-28T10:00:33.983Z,75.49
2022-11-28T10:01:33.974Z,75.91
2022-11-28T10:02:33.961Z,75.81
2022-11-28T10:03:34.019Z,74.67
2022-11-28T10:04:34.588Z,74.77
2022-11-28T10:05:33.928Z,73.85
2022-11-28T10:06:33.942Z,74.67
2022-11-28T10:07:33.976Z,74.46
2022-11-28T10:08:33.929Z,73.85
2022-11-28T10:09:33.935Z,73.74
2022-11-28T10:10:33.922Z,74.57
2022-11-28T10:11:33.924Z,75.39
2022-11-28T10:12:34.556Z,75.12
2022-11-28T10:13:59.810Z,74.98
2022-11-28T10:14:34.888Z,74.77
2022-11-28T10:15:33.859Z,74.29
2022-11-28T10:16:33.942Z,74.91
2022-11-28T10:17:33.863Z,75.74
2022-11-28T10:18:33.853Z,76.25
2022-11-28T10:19:55.405Z,76.15
2022-11-28T10:20:35.199Z,76.35
2022-11-28T10:21:40.938Z,76.56
2022-11-28T10:22:33.833Z,76.63
2022-11-28T10:23:33.821Z,76.32
2022-11-28T10:24:33.831Z,76.12
2022-11-28T10:25:33.792Z,76.12
2022-11-28T10:26:33.816Z,76.21
2022-11-28T10:27:33.817Z,76.32
2022-11-28T10:28:33.782Z,76.01
2022-11-28T10:29:33.782Z,76.39
2022-11-28T10:30:34.405Z,76.18
2022-11-28T10:31:33.753Z,75.81
2022-11-28T10:32:33.866Z,75.26
2022-11-28T10:33:33.851Z,75.36
2022-11-28T10:34:33.754Z,75.36
2022-11-28T10:35:33.746Z,74.95
2022-11-28T10:36:33.737Z,75.39
2022-11-28T10:37:33.737Z,75.49
2022-11-28T10:38:33.715Z,75.36
2022-11-28T10:39:33.760Z,75.67
2022-11-28T10:40:34.241Z,75.81
2022-11-28T10:41:34.160Z,76.53
2022-11-28T10:42:33.715Z,76.63
2022-11-28T10:43:33.739Z,76.53
2022-11-28T10:44:33.783Z,77.25
2022-11-28T10:45:48.246Z,77.04
2022-11-28T10:46:33.832Z,76.32
2022-11-28T10:47:33.665Z,76.32
2022-11-28T10:48:41.368Z,76.84
2022-11-28T10:49:34.655Z,77.04
2022-11-28T10:50:33.930Z,76.04
2022-11-28T10:51:33.629Z,76.25
2022-11-28T10:52:33.776Z,75.74
2022-11-28T10:53:33.651Z,75.32
2022-11-28T10:54:33.636Z,76.04
2022-11-28T10:55:33.673Z,75.12
2022-11-28T10:56:33.607Z,75.22
2022-11-28T10:57:33.612Z,75.12
2022-11-28T10:58:33.666Z,75.22
2022-11-28T10:59:33.633Z,75.01
2022-11-28T11:00:33.590Z,75.29
2022-11-28T11:01:33.654Z,74.98
2022-11-28T11:02:33.749Z,75.01
2022-11-28T11:03:33.621Z,75.09
2022-11-28T11:04:33.670Z,74.81
2022-11-28T11:05:33.590Z,74.67
2022-11-28T11:06:41.624Z,74.77
2022-11-28T11:07:34.619Z,74.88
2022-11-28T11:08:33.545Z,74.98
2022-11-28T11:09:33.521Z,74.46
2022-11-28T11:10:33.557Z,74.36
2022-11-28T11:11:33.511Z,75.29
2022-11-28T11:12:33.517Z,75.29
2022-11-28T11:13:33.790Z,75.39
2022-11-28T11:14:33.506Z,74.60
2022-11-28T11:15:33.613Z,74.71
2022-11-28T11:16:33.512Z,74.88
2022-11-28T11:17:36.276Z,75.09
2022-11-28T11:18:33.517Z,75.09
2022-11-28T11:19:33.446Z,74.88
2022-11-28T11:20:33.478Z,75.09
2022-11-28T11:21:33.451Z,75.39
2022-11-28T11:22:33.501Z,75.49
2022-11-28T11:23:41.285Z,74.74
2022-11-28T11:24:33.478Z,75.36
2022-11-28T11:25:33.406Z,75.26
2022-11-28T11:26:33.422Z,75.46
2022-11-28T11:27:33.408Z,75.67
2022-11-28T11:28:33.398Z,75.22
2022-11-28T11:29:33.395Z,75.15
2022-11-28T11:30:33.567Z,74.84
2022-11-28T11:31:33.458Z,75.15
2022-11-28T11:32:33.389Z,75.22
2022-11-28T11:33:33.367Z,75.26
2022-11-28T11:34:33.451Z,74.95
2022-11-28T11:35:33.368Z,75.56
2022-11-28T11:36:33.355Z,75.56
2022-11-28T11:37:33.333Z,76.08
2022-11-28T11:38:37.496Z,76.49
2022-11-28T11:39:33.321Z,76.29
2022-11-28T11:40:33.338Z,76.53
2022-11-28T11:41:33.324Z,76.63
2022-11-28T11:42:33.328Z,76.42
2022-11-28T11:43:33.325Z,77.04
2022-11-28T11:44:33.307Z,77.25
2022-11-28T11:45:33.296Z,77.11
2022-11-28T11:46:33.592Z,76.53
2022-11-28T11:47:33.381Z,76.63
2022-11-28T11:48:33.266Z,76.80
2022-11-28T11:49:33.251Z,76.84
2022-11-28T11:50:33.279Z,76.70
2022-11-28T11:51:38.085Z,76.63
2022-11-28T11:52:34.260Z,76.94
2022-11-28T11:53:33.245Z,77.15
2022-11-28T11:54:33.232Z,76.53
2022-11-28T11:55:33.226Z,76.90
2022-11-28T11:56:33.234Z,77.11
2022-11-28T11:57:34.346Z,77.11
2022-11-28T11:58:33.217Z,76.42
2022-11-28T11:59:33.668Z,76.63
2022-11-28T12:00:33.214Z,76.18
2022-11-28T12:01:33.185Z,76.80
2022-11-28T12:02:33.401Z,76.59
2022-11-28T12:03:33.412Z,76.39
2022-11-28T12:04:49.029Z,76.59
2022-11-28T12:05:52.325Z,76.49
2022-11-28T12:06:34.149Z,76.39
2022-11-28T12:07:34.051Z,76.59
2022-11-28T12:08:33.147Z,76.70
2022-11-28T12:09:33.125Z,76.39
2022-11-28T12:10:33.139Z,76.29
2022-11-28T12:11:33.112Z,76.49
2022-11-28T12:12:33.126Z,76.32
2022-11-28T12:13:33.106Z,76.39
2022-11-28T12:14:33.095Z,76.29
2022-11-28T12:15:33.098Z,76.70
2022-11-28T12:16:33.126Z,76.29
2022-11-28T12:17:48.288Z,75.67
2022-11-28T12:18:34.057Z,75.67
2022-11-28T12:19:33.104Z,75.91
2022-11-28T12:20:33.045Z,76.08
2022-11-28T12:21:33.045Z,76.42
2022-11-28T12:22:33.060Z,76.32
2022-11-28T12:23:33.037Z,76.32
2022-11-28T12:24:33.055Z,76.21
2022-11-28T12:25:33.056Z,76.42
2022-11-28T12:26:33.073Z,76.21
2022-11-28T12:27:33.029Z,76.53
2022-11-28T12:28:33.006Z,76.21
2022-11-28T12:29:33.003Z,76.42
2022-11-28T12:30:32.996Z,77.01
2022-11-28T12:31:33.080Z,76.53
2022-11-28T12:32:32.983Z,76.42
2022-11-28T12:33:32.971Z,76.73
2022-11-28T12:34:32.971Z,76.80
2022-11-28T12:35:33.286Z,76.70
2022-11-28T12:36:32.952Z,77.01
2022-11-28T12:37:54.685Z,76.90
2022-11-28T12:38:33.932Z,77.11
2022-11-28T12:39:32.945Z,76.29
2022-11-28T12:40:32.940Z,77.01
2022-11-28T12:41:33.005Z,76.80
2022-11-28T12:42:32.920Z,76.53
2022-11-28T12:43:32.910Z,76.63
2022-11-28T12:44:32.904Z,76.80
2022-11-28T12:45:32.910Z,76.84
2022-11-28T12:46:32.920Z,77.04
2022-11-28T12:47:32.885Z,77.66
2022-11-28T12:48:32.880Z,76.70
2022-11-28T12:49:32.895Z,76.70
2022-11-28T12:50:32.863Z,77.11
2022-11-28T12:51:32.902Z,77.35
2022-11-28T12:52:32.838Z,77.25